עמוד ראשי
METAR-TAF:

METAR-TAF

שדות תעופה :

טרוחיו, פרו

קו רוחב: 08-06S, קו אורך: 079-02W, גובה: 26מטר

תצפית מזג אוויר נוכחית

הדו"ח נערך לפני 14דקות, בשעה 09:00 UTC
רוח 5קשר מכיוון דרום-מזרח
טמפרטורת 17 צלסיוס
לחות 88%
לחץ 1014 hPa
ראות: 5000מטר
אד

METAR: SPRU 160900Z 14005KT 5000 BR NSC 17/15 Q1014 RMK PP000

זמן: 04:14 (09:14 UTC)

תחזית

הדו"ח נערך לפני 4 שעות ו 9דקות, בשעה 05:05 UTC
תחזית בתוקף מ 16 ב 06 UTC עד 17 ב 06 UTC
רוח 7קשר מכיוון דרום/דרום-מזרח
ראות: 6000מטר
עננים בינוניים בגובה 8000רגל
זמנית מ -
16 ב 07 UTC עד 16 ב 10 UTC
ראות: 3500מטר
מעונן בגובה 800רגל
אד
זמנית מ -
16 ב 11 UTC עד 16 ב 13 UTC
ראות: 4000מטר
עננים בינוניים בגובה 1000רגל
אד,

TAF: SPRU 160505Z 1606/1706 15007KT 6000 BKN080 TX19/1619Z TN17/1611Z TEMPO 1607/1610 3500 BR OVC008 TEMPO 1611/1613 4000 BR BKN010

תצפיות ותחזיות מזג אוויר לגבי יותר מ- 4,000 שדות תעופה ברחבי העולם. דוחות METAR ו- TAF.

התחנות הזמינות מסומנות בנקודות צהובות ואדומות על גבי המפה.

העבר את העכבר לנקודה הצבעונית על מנת לראות את שם התחנה.

לאחר מכן, לחץ כדי לראות את תוכן ואת תחזיות מזג האוויר.

כדי לשנות את המפה: לחץ על הכפתורים הירוקים עם הפלוס השחור כדי להתקרב; על הכפתור הירוק עם המקף כדי להתרחק; או בחיצים הירוקים למפות סמוכות.


METAR-TAF: